createdAt,value
2023-03-11T00:00:06.598Z,95922.00
2023-03-11T00:05:08.435Z,95936.00
2023-03-11T00:10:15.952Z,95922.00
2023-03-11T00:15:16.830Z,95925.00
2023-03-11T00:20:31.347Z,95939.00
2023-03-11T00:25:34.232Z,95940.00
2023-03-11T00:30:35.774Z,95945.00
2023-03-11T00:35:36.696Z,95949.00
2023-03-11T00:40:38.555Z,95952.00
2023-03-11T00:45:39.437Z,95956.00
2023-03-11T00:50:40.493Z,95963.00
2023-03-11T00:55:41.550Z,95976.00
2023-03-11T01:00:44.908Z,95982.00
2023-03-11T01:05:45.835Z,96000.00
2023-03-11T01:10:46.608Z,95991.00
2023-03-11T01:15:47.509Z,95975.00
2023-03-11T01:20:49.037Z,95964.00
2023-03-11T01:25:49.872Z,95972.00
2023-03-11T01:30:50.948Z,95976.00
2023-03-11T01:35:51.901Z,95970.00
2023-03-11T01:40:52.824Z,95975.00
2023-03-11T01:46:19.299Z,96008.00
2023-03-11T01:51:29.339Z,96014.00
2023-03-11T01:56:31.358Z,96016.00
2023-03-11T02:01:35.033Z,96015.00
2023-03-11T02:06:37.441Z,96022.00
2023-03-11T02:11:38.459Z,96025.00
2023-03-11T02:16:39.434Z,96021.00
2023-03-11T02:21:41.088Z,96017.00
2023-03-11T02:28:34.286Z,96014.00
2023-03-11T02:33:36.333Z,96012.00
2023-03-11T02:38:37.335Z,96003.00
2023-03-11T02:43:42.961Z,96016.00
2023-03-11T02:48:45.055Z,96025.00
2023-03-11T02:53:52.208Z,96027.00
2023-03-11T02:58:53.348Z,96026.00
2023-03-11T03:03:55.159Z,96032.00
2023-03-11T03:08:56.685Z,96047.00
2023-03-11T03:13:57.636Z,96046.00
2023-03-11T03:18:58.725Z,96056.00
2023-03-11T03:23:59.875Z,96051.00
2023-03-11T03:29:01.126Z,96055.00
2023-03-11T03:34:02.511Z,96073.00
2023-03-11T03:39:04.869Z,96067.00
2023-03-11T03:44:08.665Z,96070.00
2023-03-11T03:49:09.990Z,96078.00
2023-03-11T03:54:11.823Z,96079.00
2023-03-11T03:59:12.712Z,96083.00
2023-03-11T04:04:16.625Z,96098.00
2023-03-11T04:09:18.102Z,96095.00
2023-03-11T04:14:19.850Z,96101.00
2023-03-11T04:19:26.555Z,96101.00
2023-03-11T04:24:27.662Z,96096.00
2023-03-11T04:29:28.571Z,96082.00
2023-03-11T04:34:29.798Z,96095.00
2023-03-11T04:39:31.544Z,96100.00
2023-03-11T04:44:35.394Z,96101.00
2023-03-11T04:49:36.872Z,96100.00
2023-03-11T04:54:37.843Z,96108.00
2023-03-11T04:59:39.296Z,96114.00
2023-03-11T05:04:40.486Z,96115.00
2023-03-11T05:09:41.512Z,96118.00
2023-03-11T05:14:42.749Z,96120.00
2023-03-11T05:19:43.812Z,96139.00
2023-03-11T05:24:51.018Z,96129.00
2023-03-11T05:29:52.003Z,96132.00
2023-03-11T05:34:53.409Z,96147.00
2023-03-11T05:39:54.728Z,96150.00
2023-03-11T05:44:56.277Z,96150.00
2023-03-11T05:49:58.057Z,96147.00
2023-03-11T05:54:59.111Z,96157.00
2023-03-11T06:00:02.738Z,96152.00
2023-03-11T06:05:14.481Z,96154.00
2023-03-11T06:10:17.374Z,96167.00
2023-03-11T06:15:19.598Z,96171.00
2023-03-11T06:20:21.176Z,96166.00
2023-03-11T06:25:22.654Z,96173.00
2023-03-11T06:30:24.594Z,96176.00
2023-03-11T06:35:38.432Z,96184.00
2023-03-11T06:40:39.290Z,96191.00
2023-03-11T06:45:40.713Z,96201.00
2023-03-11T06:50:42.733Z,96209.00
2023-03-11T06:55:44.413Z,96222.00
2023-03-11T07:00:45.341Z,96228.00
2023-03-11T07:05:50.082Z,96243.00
2023-03-11T07:11:03.384Z,96255.00
2023-03-11T07:16:08.285Z,96252.00
2023-03-11T07:21:12.707Z,96269.00
2023-03-11T07:26:15.413Z,96269.00
2023-03-11T07:31:20.008Z,96269.00
2023-03-11T07:36:23.728Z,96279.00
2023-03-11T07:41:26.002Z,96292.00
2023-03-11T07:46:28.887Z,96307.00
2023-03-11T07:51:32.460Z,96313.00
2023-03-11T07:56:34.564Z,96314.00
2023-03-11T08:01:35.738Z,96319.00
2023-03-11T08:06:37.174Z,96328.00
2023-03-11T08:11:38.277Z,96336.00
2023-03-11T08:16:40.251Z,96345.00
2023-03-11T08:21:41.078Z,96347.00
2023-03-11T08:26:42.376Z,96358.00
2023-03-11T08:31:43.177Z,96358.00
2023-03-11T08:36:44.009Z,96364.00
2023-03-11T08:41:44.793Z,96373.00
2023-03-11T08:46:45.768Z,96382.00
2023-03-11T08:51:46.655Z,96379.00
2023-03-11T08:56:47.546Z,96369.00
2023-03-11T09:01:48.308Z,96381.00
2023-03-11T09:06:49.534Z,96381.00
2023-03-11T09:11:50.393Z,96384.00
2023-03-11T09:16:51.167Z,96393.00
2023-03-11T09:21:52.035Z,96395.00
2023-03-11T09:26:53.001Z,96393.00
2023-03-11T09:31:53.998Z,96398.00
2023-03-11T09:36:54.989Z,96401.00
2023-03-11T09:41:59.346Z,96392.00
2023-03-11T09:47:32.703Z,96407.00
2023-03-11T09:53:01.672Z,96401.00
2023-03-11T09:59:43.074Z,96407.00
2023-03-11T10:05:00.992Z,96413.00
2023-03-11T10:10:01.941Z,96415.00
2023-03-11T10:15:48.527Z,96423.00
2023-03-11T10:21:00.213Z,96430.00
2023-03-11T10:29:27.208Z,96428.00
2023-03-11T10:34:37.476Z,96441.00
2023-03-11T10:39:40.132Z,96447.00
2023-03-11T10:44:42.702Z,96436.00
2023-03-11T10:49:43.608Z,96435.00
2023-03-11T10:54:47.425Z,96450.00
2023-03-11T11:00:16.629Z,96453.00
2023-03-11T11:05:31.939Z,96462.00
2023-03-11T11:10:34.877Z,96467.00
2023-03-11T11:15:39.273Z,96470.00
2023-03-11T11:21:52.576Z,96461.00
2023-03-11T11:27:28.521Z,96460.00
2023-03-11T11:32:29.505Z,96473.00
2023-03-11T11:37:36.431Z,96467.00
2023-03-11T11:42:39.786Z,96460.00
2023-03-11T11:47:47.686Z,96449.00
2023-03-11T11:54:39.464Z,96458.00
2023-03-11T11:59:41.514Z,96451.00
2023-03-11T12:05:00.170Z,96430.00
2023-03-11T12:12:03.052Z,96438.00
2023-03-11T12:17:04.780Z,96438.00
2023-03-11T12:22:53.512Z,96440.00
2023-03-11T12:28:08.331Z,96442.00
2023-03-11T12:33:36.185Z,96439.00
2023-03-11T12:38:40.069Z,96451.00
2023-03-11T12:44:05.282Z,96462.00
2023-03-11T12:49:14.250Z,96465.00
2023-03-11T12:54:33.929Z,96468.00
2023-03-11T13:03:34.191Z,96451.00
2023-03-11T13:08:56.600Z,96450.00
2023-03-11T13:14:35.258Z,96455.00
2023-03-11T13:19:46.072Z,96457.00
2023-03-11T13:24:49.904Z,96468.00
2023-03-11T13:30:16.417Z,96448.00
2023-03-11T13:44:43.919Z,96456.00
2023-03-11T13:50:02.606Z,96458.00
2023-03-11T13:55:27.747Z,96466.00
2023-03-11T14:00:29.896Z,96466.00
2023-03-11T14:05:33.025Z,96463.00
2023-03-11T14:10:33.843Z,96474.00
2023-03-11T14:15:43.692Z,96474.00
2023-03-11T14:20:47.153Z,96469.00
2023-03-11T14:25:47.971Z,96468.00
2023-03-11T14:30:57.610Z,96459.00
2023-03-11T14:36:02.440Z,96457.00
2023-03-11T14:41:05.712Z,96460.00
2023-03-11T14:46:07.003Z,96467.00
2023-03-11T14:51:17.164Z,96471.00
2023-03-11T14:56:21.203Z,96471.00
2023-03-11T15:01:25.844Z,96474.00
2023-03-11T15:06:31.755Z,96465.00
2023-03-11T15:11:48.182Z,96464.00
2023-03-11T15:16:50.821Z,96460.00
2023-03-11T15:21:53.641Z,96460.00
2023-03-11T15:27:26.699Z,96479.00
2023-03-11T15:32:39.767Z,96481.00
2023-03-11T15:37:42.090Z,96478.00
2023-03-11T15:42:43.121Z,96480.00
2023-03-11T15:47:45.663Z,96487.00
2023-03-11T15:52:47.962Z,96487.00
2023-03-11T15:57:52.071Z,96488.00
2023-03-11T16:02:53.846Z,96486.00
2023-03-11T16:07:54.604Z,96485.00
2023-03-11T16:12:55.422Z,96495.00
2023-03-11T16:18:01.196Z,96498.00
2023-03-11T16:23:02.930Z,96514.00
2023-03-11T16:28:04.593Z,96506.00
2023-03-11T16:33:05.427Z,96516.00
2023-03-11T16:38:07.083Z,96506.00
2023-03-11T16:43:10.546Z,96518.00
2023-03-11T16:48:15.737Z,96516.00
2023-03-11T16:53:17.869Z,96511.00
2023-03-11T16:58:19.759Z,96517.00
2023-03-11T17:03:21.751Z,96521.00
2023-03-11T17:08:24.238Z,96526.00
2023-03-11T17:13:25.153Z,96525.00
2023-03-11T17:18:26.609Z,96524.00
2023-03-11T17:23:27.446Z,96536.00
2023-03-11T17:28:28.252Z,96533.00
2023-03-11T17:33:29.004Z,96542.00
2023-03-11T17:38:29.800Z,96551.00
2023-03-11T17:43:30.583Z,96551.00
2023-03-11T17:48:31.560Z,96556.00
2023-03-11T17:53:32.887Z,96558.00
2023-03-11T17:58:34.594Z,96569.00
2023-03-11T18:03:35.482Z,96572.00
2023-03-11T18:08:36.777Z,96573.00
2023-03-11T18:13:39.018Z,96577.00
2023-03-11T18:18:41.891Z,96575.00
2023-03-11T18:23:43.887Z,96570.00
2023-03-11T18:28:45.135Z,96578.00
2023-03-11T18:33:52.244Z,96580.00
2023-03-11T18:38:56.732Z,96591.00
2023-03-11T18:43:58.959Z,96583.00
2023-03-11T18:49:02.934Z,96589.00
2023-03-11T18:54:03.810Z,96586.00
2023-03-11T18:59:04.666Z,96586.00
2023-03-11T19:04:05.781Z,96588.00
2023-03-11T19:09:06.680Z,96589.00
2023-03-11T19:14:07.571Z,96597.00
2023-03-11T19:19:11.601Z,96601.00
2023-03-11T19:24:13.412Z,96599.00
2023-03-11T19:29:14.780Z,96601.00
2023-03-11T19:34:15.812Z,96609.00
2023-03-11T19:39:16.661Z,96610.00
2023-03-11T19:44:17.574Z,96615.00
2023-03-11T19:49:18.587Z,96620.00
2023-03-11T19:54:19.561Z,96627.00
2023-03-11T19:59:20.811Z,96628.00
2023-03-11T20:04:21.725Z,96627.00
2023-03-11T20:09:22.599Z,96625.00
2023-03-11T20:14:23.626Z,96630.00
2023-03-11T20:19:24.567Z,96627.00
2023-03-11T20:24:26.144Z,96633.00
2023-03-11T20:29:26.920Z,96646.00
2023-03-11T20:34:28.575Z,96651.00
2023-03-11T20:39:29.434Z,96650.00
2023-03-11T20:44:30.573Z,96656.00
2023-03-11T20:49:31.409Z,96661.00
2023-03-11T20:54:32.323Z,96659.00
2023-03-11T20:59:33.265Z,96675.00
2023-03-11T21:04:34.711Z,96671.00
2023-03-11T21:09:35.802Z,96665.00
2023-03-11T21:14:36.670Z,96659.00
2023-03-11T21:19:37.598Z,96656.00
2023-03-11T21:24:38.718Z,96650.00
2023-03-11T21:29:39.616Z,96649.00
2023-03-11T21:34:40.414Z,96654.00
2023-03-11T21:39:41.649Z,96647.00
2023-03-11T21:44:43.139Z,96654.00
2023-03-11T21:49:44.091Z,96656.00
2023-03-11T21:54:45.172Z,96658.00
2023-03-11T21:59:46.226Z,96648.00
2023-03-11T22:04:47.709Z,96662.00
2023-03-11T22:09:48.649Z,96663.00
2023-03-11T22:14:49.619Z,96662.00
2023-03-11T22:19:50.647Z,96658.00
2023-03-11T22:24:51.694Z,96649.00
2023-03-11T22:29:52.550Z,96645.00
2023-03-11T22:34:53.336Z,96646.00
2023-03-11T22:39:54.122Z,96651.00
2023-03-11T22:44:54.912Z,96656.00
2023-03-11T22:49:55.694Z,96653.00
2023-03-11T22:54:56.883Z,96653.00
2023-03-11T22:59:57.641Z,96655.00
2023-03-11T23:04:58.410Z,96660.00
2023-03-11T23:09:59.168Z,96662.00
2023-03-11T23:15:02.580Z,96656.00
2023-03-11T23:20:05.202Z,96654.00
2023-03-11T23:25:10.177Z,96657.00
2023-03-11T23:30:13.627Z,96648.00
2023-03-11T23:35:14.608Z,96656.00
2023-03-11T23:40:16.488Z,96652.00
2023-03-11T23:45:18.534Z,96663.00
2023-03-11T23:50:19.536Z,96644.00
2023-03-11T23:55:20.398Z,96655.00
